Saturday, May 26, 2018, 8:11 AM EDT
Back to Local

KMIV, Millville Municipal Airport

Location: Millville, NJ, United States Lat: 39.367
Local Time: 8:11 AM EDT (12:11 GMT) Lon: -75.083
Time Zone: US/Eastern Elev: 85 ft

Show me the last for .
Show Decoded

2018-05-26 07:54 METAR KMIV 261154Z AUTO 24007KT 210V270 10SM CLR A2987 RMK AO2 SLPNO 51003 $ =
2018-05-26 06:54 METAR KMIV 261054Z AUTO 00000KT 10SM CLR A2987 RMK AO2 SLPNO $ =
2018-05-26 05:54 METAR KMIV 260954Z AUTO 00000KT 9SM CLR A2987 RMK AO2 SLPNO $ =
2018-05-26 04:54 METAR KMIV 260854Z AUTO 00000KT 10SM BKN110 A2986 RMK AO2 SLPNO 57010 $ =
2018-05-26 03:54 METAR KMIV 260754Z AUTO 00000KT 10SM FEW075 A2987 RMK AO2 SLPNO $ =
2018-05-26 02:54 METAR KMIV 260654Z AUTO 00000KT 10SM BKN075 A2988 RMK AO2 SLPNO $ =
2018-05-26 01:54 METAR KMIV 260554Z AUTO 00000KT 10SM CLR A2989 RMK AO2 SLPNO 58007 $ =
2018-05-26 00:54 METAR KMIV 260454Z AUTO 23004KT 10SM CLR A2990 RMK AO2 SLPNO $ =
2018-05-25 23:54 METAR KMIV 260354Z AUTO VRB04KT 10SM CLR A2991 RMK AO2 SLPNO $ =
2018-05-25 22:54 METAR KMIV 260254Z AUTO 21005KT 10SM CLR A2991 RMK AO2 SLPNO 54000 $ =
2018-05-25 21:54 METAR KMIV 260154Z AUTO VRB03KT 10SM CLR A2991 RMK AO2 SLPNO $ =
2018-05-25 20:54 METAR KMIV 260054Z AUTO 23004KT 10SM CLR A2991 RMK AO2 SLPNO $ =
2018-05-25 19:54 METAR KMIV 252354Z AUTO VRB04KT 10SM CLR A2991 RMK AO2 SLPNO 56005 $ =
2018-05-25 18:54 METAR KMIV 252254Z AUTO 23007G16KT 210V270 10SM CLR A2991 RMK AO2 SLPNO $ =
2018-05-25 17:54 METAR KMIV 252154Z AUTO 22008KT 10SM CLR A2991 RMK AO2 SLPNO $ =
2018-05-25 16:54 METAR KMIV 252054Z AUTO 24009G15KT 10SM CLR 28/16 A2993 RMK AO2 SLP133 T02830156
                 56021 $ =
2018-05-25 15:54 METAR KMIV 251954Z AUTO 22007G17KT 180V240 10SM CLR 28/16 A2994 RMK AO2 SLP137
                 T02830156 =
2018-05-25 14:54 METAR KMIV 251854Z AUTO VRB06G16KT 10SM CLR 28/15 A2997 RMK AO2 SLP146 T02830150
                 =
2018-05-25 13:54 METAR KMIV 251754Z AUTO 24009G16KT 200V280 10SM CLR 28/15 A2999 RMK AO2 SLP154
                 T02780150 10283 20194 58023 =
2018-05-25 12:54 METAR KMIV 251654Z AUTO 24011G18KT 10SM CLR 28/17 A3001 RMK AO2 SLP162 T02780167
                 =
2018-05-25 11:54 METAR KMIV 251554Z AUTO 22008KT 10SM CLR 27/16 A3004 RMK AO2 SLP172 T02670161 =
2018-05-25 10:54 METAR KMIV 251454Z AUTO 24005KT 10SM CLR 26/17 A3006 RMK AO2 SLP177 T02560167
                 58013 =
2018-05-25 09:54 METAR KMIV 251354Z AUTO 22007KT 200V260 10SM CLR 24/17 A3007 RMK AO2 SLP182
                 T02440167 =
2018-05-25 08:54 METAR KMIV 251254Z AUTO 24010KT 10SM CLR 22/16 A3009 RMK AO2 SLP189 T02220161 =

Support USWX by starting your Amazon purchase here.